Time;durP1;ratioP1;P1;durP2;ratioP2;P2;SDS_P1;SDS_P2;PMS_P1;PMS_P2;Temp;Humidity;BMP_temperature;BMP_pressure;BME280_temperature;BME280_humidity;BME280_pressure;Samples;Min_cycle;Max_cycle;Signal;HPM_P1;HPM_P2
2022/06/14 00:00:55;;;;;;;10.67;6.00;;;20.50;45.00;;;;;;5051294;28;20443;-89
2022/06/14 00:03:26;;;;;;;6.10;5.27;;;20.50;45.20;;;;;;5045757;28;20450;-91
2022/06/14 00:05:55;;;;;;;7.03;5.20;;;20.40;45.20;;;;;;5053082;28;20459;-90
2022/06/14 00:08:26;;;;;;;7.00;5.10;;;20.40;45.30;;;;;;5052743;28;20474;-89
2022/06/14 00:10:58;;;;;;;8.20;5.40;;;20.30;45.70;;;;;;5083642;28;20862;-92
2022/06/14 00:13:29;;;;;;;5.77;5.23;;;20.30;45.90;;;;;;5056509;28;20566;-91
2022/06/14 00:16:00;;;;;;;7.23;5.00;;;20.20;46.20;;;;;;5068618;28;21009;-90
2022/06/14 00:18:28;;;;;;;9.13;5.83;;;20.20;46.40;;;;;;5086523;28;20450;-90
2022/06/14 00:20:57;;;;;;;5.93;5.30;;;20.20;46.30;;;;;;5080666;28;20448;-91
2022/06/14 00:23:24;;;;;;;5.80;5.30;;;20.20;46.60;;;;;;5065940;28;20947;-90
2022/06/14 00:25:56;;;;;;;7.17;5.07;;;20.10;46.80;;;;;;5060581;28;21060;-90
2022/06/14 00:28:26;;;;;;;9.07;5.63;;;20.10;47.10;;;;;;5067481;28;20546;-92
2022/06/14 00:30:57;;;;;;;11.33;5.90;;;20.10;47.30;;;;;;5069056;28;20816;-90
2022/06/14 00:33:26;;;;;;;8.43;5.67;;;20.00;47.20;;;;;;5083827;28;20477;-89
2022/06/14 00:35:59;;;;;;;8.27;5.93;;;20.00;47.40;;;;;;5064970;28;20503;-93
2022/06/14 00:38:29;;;;;;;8.97;5.30;;;19.90;47.50;;;;;;5045442;28;20451;-90
2022/06/14 00:41:01;;;;;;;6.30;5.57;;;19.80;47.20;;;;;;5068251;28;20452;-91
2022/06/14 00:43:32;;;;;;;5.90;4.90;;;19.80;47.30;;;;;;5058854;28;20455;-94
2022/06/14 00:46:14;;;;;;;8.00;5.90;;;19.70;47.20;;;;;;5049759;28;20464;-93
2022/06/14 00:48:56;;;;;;;5.70;4.73;;;19.70;47.20;;;;;;5046020;28;20506;-89
2022/06/14 00:51:29;;;;;;;6.90;5.67;;;19.70;47.10;;;;;;5055774;28;20447;-91
2022/06/14 00:54:04;;;;;;;6.47;5.00;;;19.60;46.90;;;;;;5069971;28;20546;-90
2022/06/14 00:56:38;;;;;;;6.90;5.50;;;19.50;47.30;;;;;;5051052;28;20476;-93
2022/06/14 00:59:12;;;;;;;6.10;5.37;;;19.40;47.10;;;;;;5066978;28;20476;-91
2022/06/14 01:01:44;;;;;;;5.63;4.90;;;19.40;47.10;;;;;;5066582;28;20436;-91
2022/06/14 01:04:17;;;;;;;6.27;5.37;;;19.40;47.20;;;;;;5069626;28;20432;-89
2022/06/14 01:06:52;;;;;;;5.47;4.97;;;19.40;47.20;;;;;;5051647;28;20459;-92
2022/06/14 01:09:26;;;;;;;5.40;4.67;;;19.30;47.10;;;;;;5068059;28;20439;-92
2022/06/14 01:12:00;;;;;;;12.30;6.30;;;19.20;47.40;;;;;;5067506;28;20858;-90
2022/06/14 01:14:36;;;;;;;7.50;5.07;;;19.20;47.50;;;;;;5050657;28;20826;-92
2022/06/14 01:17:04;;;;;;;10.87;6.30;;;19.20;47.60;;;;;;5082059;28;21064;-92
2022/06/14 01:19:34;;;;;;;10.33;5.37;;;19.20;47.60;;;;;;5068170;28;20531;-91
2022/06/14 01:22:28;;;;;;;10.23;5.27;;;19.20;47.60;;;;;;5051408;28;20612;-92
2022/06/14 01:24:57;;;;;;;6.33;5.10;;;19.20;47.60;;;;;;5072570;28;20452;-91
2022/06/14 01:27:27;;;;;;;6.93;4.90;;;19.10;47.60;;;;;;5045775;28;20435;-91
2022/06/14 01:30:12;;;;;;;7.10;5.73;;;19.00;47.80;;;;;;5055504;28;20458;-92
2022/06/14 01:32:45;;;;;;;6.40;5.13;;;18.90;48.20;;;;;;5062503;28;20436;-90
2022/06/14 01:35:17;;;;;;;7.00;5.47;;;18.90;48.40;;;;;;5080389;28;20479;-90
2022/06/14 01:37:52;;;;;;;9.00;6.10;;;18.90;48.30;;;;;;5066283;28;20460;-90
2022/06/14 01:40:33;;;;;;;8.03;6.03;;;18.80;47.90;;;;;;5066972;28;20447;-90
2022/06/14 01:43:17;;;;;;;8.00;5.70;;;18.40;48.40;;;;;;5054125;28;20447;-89
2022/06/14 01:46:00;;;;;;;7.57;6.40;;;18.40;48.90;;;;;;5062168;28;20463;-90
2022/06/14 01:48:33;;;;;;;11.73;6.37;;;18.50;49.00;;;;;;5067531;28;20483;-91
2022/06/14 01:54:07;;;;;;;6.00;5.40;;;18.50;48.40;;;;;;5053796;28;20442;-90
2022/06/14 01:56:45;;;;;;;8.27;5.50;;;18.60;48.00;;;;;;5070105;28;21013;-91
2022/06/14 01:59:23;;;;;;;9.20;5.50;;;18.60;47.80;;;;;;5046305;28;20479;-89
2022/06/14 02:02:02;;;;;;;8.37;5.87;;;18.60;48.20;;;;;;5072570;28;20531;-91
2022/06/14 02:04:40;;;;;;;7.30;5.30;;;18.60;48.30;;;;;;5085875;28;20494;-90
2022/06/14 02:07:24;;;;;;;8.30;5.30;;;18.60;48.10;;;;;;5069781;28;20530;-90
2022/06/14 02:10:02;;;;;;;6.70;4.97;;;18.60;48.30;;;;;;5062690;28;20455;-90
2022/06/14 02:12:39;;;;;;;8.27;5.80;;;18.60;48.10;;;;;;5085515;28;20795;-92
2022/06/14 02:15:18;;;;;;;8.27;5.40;;;18.50;48.20;;;;;;5086125;28;20464;-90
2022/06/14 02:17:54;;;;;;;7.40;5.70;;;18.50;48.20;;;;;;5055313;28;20465;-89
2022/06/14 02:20:29;;;;;;;9.33;5.77;;;18.50;48.80;;;;;;5068869;28;20484;-90
2022/06/14 02:23:02;;;;;;;7.33;5.80;;;18.30;48.70;;;;;;5065133;28;20439;-91
2022/06/14 02:25:39;;;;;;;9.90;6.27;;;18.30;48.80;;;;;;5058876;28;20475;-90
2022/06/14 02:28:14;;;;;;;8.53;6.13;;;18.40;48.40;;;;;;5057034;28;20455;-90
2022/06/14 02:30:48;;;;;;;7.03;5.80;;;18.30;48.30;;;;;;5063716;28;20442;-92
2022/06/14 02:33:22;;;;;;;6.67;5.93;;;18.40;48.10;;;;;;5058423;28;20528;-91
2022/06/14 02:35:57;;;;;;;6.30;5.30;;;18.30;47.70;;;;;;5086947;28;20467;-92
2022/06/14 02:38:30;;;;;;;5.70;5.07;;;18.20;48.30;;;;;;5069632;28;21011;-90
2022/06/14 02:41:07;;;;;;;6.80;5.57;;;18.10;48.50;;;;;;5076468;28;20497;-90
2022/06/14 02:43:42;;;;;;;7.93;6.17;;;18.10;48.60;;;;;;5062955;28;20498;-90
2022/06/14 02:46:18;;;;;;;8.30;6.37;;;18.00;49.10;;;;;;5048812;28;20594;-89
2022/06/14 02:48:53;;;;;;;6.10;5.40;;;18.00;49.20;;;;;;5070691;28;20804;-90
2022/06/14 02:51:28;;;;;;;9.53;6.80;;;18.00;49.10;;;;;;5087569;28;20880;-90
2022/06/14 02:54:03;;;;;;;7.60;6.80;;;18.00;48.80;;;;;;5087197;28;20440;-90
2022/06/14 02:56:40;;;;;;;8.03;6.70;;;18.00;48.80;;;;;;5069478;28;20463;-92
2022/06/14 02:59:13;;;;;;;9.20;6.87;;;17.90;48.80;;;;;;5053419;28;20444;-91
2022/06/14 03:01:46;;;;;;;8.13;6.87;;;17.50;49.90;;;;;;5067129;28;20442;-90
2022/06/14 03:04:18;;;;;;;6.93;6.00;;;17.60;49.70;;;;;;5072297;28;20452;-89
2022/06/14 03:06:58;;;;;;;6.73;6.03;;;17.60;49.70;;;;;;5061780;28;20462;-91
2022/06/14 03:09:31;;;;;;;6.90;6.20;;;17.70;49.60;;;;;;5070523;28;20456;-89
2022/06/14 03:12:13;;;;;;;8.40;6.40;;;17.50;49.90;;;;;;5065892;28;20454;-91
2022/06/14 03:15:01;;;;;;;8.10;5.73;;;17.50;49.90;;;;;;5073035;28;20532;-90
2022/06/14 03:17:44;;;;;;;8.80;6.13;;;17.50;49.50;;;;;;5064275;28;20463;-90
2022/06/14 03:20:39;;;;;;;5.83;5.23;;;17.60;49.70;;;;;;5084093;28;20441;-91
2022/06/14 03:23:34;;;;;;;8.10;6.23;;;17.70;49.10;;;;;;5055524;28;20979;-90
2022/06/14 03:26:10;;;;;;;8.30;5.90;;;17.70;49.00;;;;;;5087457;28;20493;-90
2022/06/14 03:28:45;;;;;;;8.20;6.17;;;17.70;49.10;;;;;;5089931;28;20443;-89
2022/06/14 03:31:17;;;;;;;10.20;7.70;;;17.70;48.90;;;;;;5064125;28;20531;-89
2022/06/14 03:33:49;;;;;;;11.17;7.80;;;17.70;48.80;;;;;;5070480;28;20706;-90
2022/06/14 03:36:18;;;;;;;8.63;6.67;;;17.20;50.20;;;;;;5070008;28;20472;-91
2022/06/14 03:38:51;;;;;;;9.40;6.93;;;16.90;50.50;;;;;;5061446;28;20540;-90
2022/06/14 03:41:25;;;;;;;9.30;6.50;;;16.80;50.70;;;;;;5073049;28;20451;-90
2022/06/14 03:43:59;;;;;;;9.47;6.67;;;16.90;50.70;;;;;;5052684;28;20454;-89
2022/06/14 03:46:32;;;;;;;6.80;6.17;;;17.10;50.30;;;;;;5067808;28;20517;-89
2022/06/14 03:49:05;;;;;;;8.63;6.50;;;17.20;50.10;;;;;;5064828;28;20446;-90
2022/06/14 03:51:45;;;;;;;6.17;5.20;;;17.20;49.90;;;;;;5068687;28;20517;-90
2022/06/14 03:54:33;;;;;;;5.50;4.90;;;17.40;49.90;;;;;;5087978;28;20528;-90
2022/06/14 03:57:16;;;;;;;6.87;6.17;;;17.40;49.90;;;;;;5061451;28;20460;-89
2022/06/14 04:00:01;;;;;;;9.90;5.63;;;17.40;50.40;;;;;;5058802;28;20440;-90
2022/06/14 04:03:02;;;;;;;10.67;6.10;;;17.40;50.50;;;;;;5095890;28;20455;-89
2022/06/14 04:05:42;;;;;;;7.63;5.83;;;17.40;50.50;;;;;;5068582;28;20467;-90
2022/06/14 04:08:22;;;;;;;6.73;6.03;;;17.40;50.70;;;;;;5085187;28;20435;-89
2022/06/14 04:11:01;;;;;;;6.50;5.67;;;17.40;50.50;;;;;;5074001;28;20452;-93
2022/06/14 04:13:37;;;;;;;6.33;5.20;;;17.50;50.80;;;;;;5070032;28;20440;-95
2022/06/14 04:16:12;;;;;;;6.50;5.10;;;17.50;50.80;;;;;;5072091;28;20472;-92
2022/06/14 04:18:51;;;;;;;7.17;5.50;;;17.50;51.00;;;;;;5095663;28;20448;-92
2022/06/14 04:21:34;;;;;;;10.50;5.83;;;17.50;50.80;;;;;;5091333;28;20447;-91
2022/06/14 04:24:12;;;;;;;6.77;5.13;;;17.60;50.70;;;;;;5087922;28;20444;-92
2022/06/14 04:26:45;;;;;;;7.33;5.50;;;17.60;50.60;;;;;;5072293;28;21181;-89
2022/06/14 04:29:19;;;;;;;11.90;5.70;;;17.60;50.40;;;;;;5092344;28;20531;-91
2022/06/14 04:31:57;;;;;;;6.87;5.57;;;17.60;50.70;;;;;;5053738;28;20448;-91
2022/06/14 04:34:30;;;;;;;11.17;5.37;;;17.60;50.60;;;;;;5087160;28;20462;-92
2022/06/14 04:37:04;;;;;;;5.43;4.90;;;17.60;50.30;;;;;;5039697;28;20467;-92
2022/06/14 04:39:36;;;;;;;7.80;5.73;;;17.50;50.50;;;;;;5060840;28;20490;-90
2022/06/14 04:42:09;;;;;;;6.50;4.70;;;17.60;50.60;;;;;;5075732;28;20448;-90
2022/06/14 04:44:44;;;;;;;6.97;5.57;;;17.60;50.30;;;;;;5078071;28;20453;-90
2022/06/14 04:47:17;;;;;;;11.83;5.23;;;17.50;50.40;;;;;;5066113;28;20435;-95
2022/06/14 04:49:49;;;;;;;7.17;5.60;;;17.50;50.80;;;;;;5080280;28;20475;-93
2022/06/14 04:52:23;;;;;;;5.90;5.30;;;17.50;51.00;;;;;;5069619;28;20457;-93
2022/06/14 04:54:58;;;;;;;7.80;5.37;;;17.60;51.00;;;;;;5066261;28;20455;-94
2022/06/14 04:57:35;;;;;;;9.47;5.53;;;17.60;50.80;;;;;;5077691;28;20465;-91
2022/06/14 05:00:10;;;;;;;7.77;5.73;;;17.50;50.50;;;;;;5081720;28;20454;-92
2022/06/14 05:02:45;;;;;;;8.73;4.80;;;17.60;50.90;;;;;;5049599;28;21069;-92
2022/06/14 05:05:18;;;;;;;7.30;4.67;;;17.60;50.60;;;;;;5043498;28;20498;-92
2022/06/14 05:07:49;;;;;;;8.87;5.37;;;17.60;51.00;;;;;;5073681;28;20896;-93
2022/06/14 05:10:22;;;;;;;6.00;5.40;;;17.70;50.80;;;;;;5066945;28;20822;-93
2022/06/14 05:12:56;;;;;;;6.97;5.00;;;17.70;50.70;;;;;;5062581;28;20440;-93
2022/06/14 05:15:29;;;;;;;7.00;5.00;;;17.60;51.10;;;;;;5038007;28;20472;-93
2022/06/14 05:18:03;;;;;;;7.73;5.90;;;17.50;51.70;;;;;;5049188;28;20470;-93
2022/06/14 05:20:37;;;;;;;7.27;5.80;;;17.30;52.20;;;;;;5061456;28;20471;-92
2022/06/14 05:23:10;;;;;;;5.97;5.33;;;17.30;52.20;;;;;;5047780;28;20886;-94
2022/06/14 05:25:47;;;;;;;6.60;5.40;;;17.40;52.30;;;;;;5048872;28;20464;-94
2022/06/14 05:28:24;;;;;;;10.37;5.40;;;17.40;52.20;;;;;;5080759;28;20986;-93
2022/06/14 05:30:58;;;;;;;5.30;4.57;;;17.50;52.30;;;;;;5080818;28;20534;-93
2022/06/14 05:33:39;;;;;;;6.67;4.90;;;17.30;53.20;;;;;;5092611;28;20442;-92
2022/06/14 05:36:13;;;;;;;12.93;5.57;;;17.00;52.90;;;;;;5049721;28;20861;-95
2022/06/14 05:38:48;;;;;;;6.50;5.87;;;17.20;53.00;;;;;;5069394;28;20459;-95
2022/06/14 05:41:23;;;;;;;8.63;5.97;;;17.50;52.90;;;;;;5048306;28;20451;-95
2022/06/14 05:43:54;;;;;;;9.50;5.43;;;17.60;52.50;;;;;;5078361;28;20459;-93
2022/06/14 05:46:29;;;;;;;7.70;4.80;;;17.50;51.60;;;;;;5067534;28;20468;-93
2022/06/14 05:49:05;;;;;;;8.50;5.10;;;17.70;51.90;;;;;;5068793;28;21150;-93
2022/06/14 05:51:40;;;;;;;10.83;5.20;;;17.90;51.50;;;;;;5063202;28;20974;-93
2022/06/14 05:54:18;;;;;;;7.30;4.57;;;18.10;51.30;;;;;;5060622;28;20452;-91
2022/06/14 05:56:53;;;;;;;9.87;6.00;;;18.40;51.50;;;;;;5063069;28;20509;-90
2022/06/14 05:59:31;;;;;;;9.47;4.80;;;18.80;50.80;;;;;;5057332;28;20447;-93
2022/06/14 06:02:06;;;;;;;7.33;5.57;;;19.00;49.70;;;;;;5053984;28;20517;-91
2022/06/14 06:04:45;;;;;;;7.50;4.63;;;19.20;49.30;;;;;;5044963;28;20435;-92
2022/06/14 06:07:16;;;;;;;7.83;4.27;;;19.30;48.80;;;;;;5056730;28;20964;-92
2022/06/14 06:09:48;;;;;;;7.50;4.50;;;19.20;48.30;;;;;;5051140;28;20467;-91
2022/06/14 06:12:23;;;;;;;6.60;4.40;;;19.10;48.80;;;;;;5066530;28;21051;-92
2022/06/14 06:14:55;;;;;;;10.10;4.77;;;18.90;48.20;;;;;;5082114;28;20435;-91
2022/06/14 06:17:30;;;;;;;7.73;4.67;;;18.90;48.70;;;;;;5083576;28;20919;-93
2022/06/14 06:20:06;;;;;;;7.83;4.63;;;18.80;48.70;;;;;;5069505;28;20436;-96
2022/06/14 06:22:39;;;;;;;13.10;5.47;;;18.90;49.40;;;;;;5058188;28;20439;-93
2022/06/14 06:25:14;;;;;;;5.93;5.40;;;19.10;48.90;;;;;;5074385;28;20461;-92
2022/06/14 06:27:48;;;;;;;9.80;4.60;;;19.10;48.90;;;;;;5069736;28;21016;-91
2022/06/14 06:30:20;;;;;;;4.67;4.27;;;19.40;49.20;;;;;;5061475;28;20549;-94
2022/06/14 06:32:48;;;;;;;7.43;4.10;;;19.50;48.80;;;;;;5069721;28;20528;-93
2022/06/14 06:35:19;;;;;;;4.77;4.20;;;19.80;48.60;;;;;;5067936;28;20564;-95
2022/06/14 06:37:54;;;;;;;7.40;4.33;;;19.90;48.10;;;;;;5062518;28;20490;-93
2022/06/14 06:40:25;;;;;;;6.53;4.03;;;20.00;48.30;;;;;;5077984;28;20838;-96
2022/06/14 06:43:05;;;;;;;7.43;4.07;;;20.20;47.80;;;;;;5098170;28;20862;-94
2022/06/14 06:45:37;;;;;;;7.47;4.10;;;20.40;47.50;;;;;;5088805;28;20994;-93
2022/06/14 06:48:11;;;;;;;7.67;4.77;;;20.40;46.80;;;;;;5092944;28;20446;-91
2022/06/14 06:50:46;;;;;;;5.20;4.00;;;20.40;46.60;;;;;;5082692;28;20436;-91
2022/06/14 06:53:17;;;;;;;7.10;4.27;;;20.60;47.30;;;;;;5086597;28;20447;-90
2022/06/14 06:55:57;;;;;;;10.60;3.97;;;20.90;46.40;;;;;;5051108;28;20990;-91
2022/06/14 06:58:26;;;;;;;5.93;4.63;;;20.80;46.20;;;;;;5058440;28;20459;-94
2022/06/14 07:00:56;;;;;;;9.53;4.23;;;20.90;46.20;;;;;;5057152;28;20474;-93
2022/06/14 07:03:32;;;;;;;6.20;3.93;;;21.10;45.80;;;;;;5070880;28;20467;-92
2022/06/14 07:06:05;;;;;;;6.40;3.67;;;21.20;46.30;;;;;;5050501;28;20467;-92
2022/06/14 07:08:42;;;;;;;11.17;4.33;;;21.40;45.90;;;;;;5056033;28;20468;-93
2022/06/14 07:11:17;;;;;;;5.77;4.43;;;21.70;45.70;;;;;;5072318;28;20676;-95
2022/06/14 07:17:48;;;;;;;6.80;4.33;;;21.70;45.00;;;;;;5073658;28;20471;-92
2022/06/14 07:20:27;;;;;;;5.80;3.60;;;21.70;45.50;;;;;;5046237;28;20509;-92
2022/06/14 07:23:03;;;;;;;10.63;3.57;;;21.70;45.00;;;;;;5051489;28;20480;-91
2022/06/14 07:25:37;;;;;;;6.70;3.20;;;21.80;44.90;;;;;;5053563;28;20556;-91
2022/06/14 07:28:09;;;;;;;10.90;3.60;;;21.80;45.30;;;;;;5050917;28;20966;-92
2022/06/14 07:30:44;;;;;;;7.53;3.80;;;21.70;45.50;;;;;;5046399;28;20495;-92
2022/06/14 07:33:13;;;;;;;5.70;3.60;;;21.70;45.40;;;;;;5087400;28;20476;-91
2022/06/14 07:35:45;;;;;;;6.80;4.57;;;22.00;45.10;;;;;;5082123;28;20515;-91
2022/06/14 07:42:16;;;;;;;4.90;3.63;;;22.60;44.70;;;;;;5081147;28;20458;-93
2022/06/14 07:44:53;;;;;;;9.43;3.40;;;23.00;43.40;;;;;;5040787;28;20456;-90
2022/06/14 07:47:27;;;;;;;6.57;3.90;;;23.00;43.30;;;;;;5062820;28;20474;-92
2022/06/14 08:07:24;;;;;;;6.73;3.20;;;23.70;41.60;;;;;;5075999;28;20805;-89
2022/06/14 08:14:18;;;;;;;5.43;3.50;;;23.90;40.60;;;;;;5078999;28;20467;-89
2022/06/14 08:16:52;;;;;;;4.80;2.97;;;23.80;40.00;;;;;;5078058;28;21209;-92
2022/06/14 08:19:27;;;;;;;4.80;3.30;;;23.90;40.00;;;;;;5070621;28;20444;-92
2022/06/14 08:22:00;;;;;;;5.33;3.10;;;24.10;38.50;;;;;;5063236;28;20436;-89
2022/06/14 08:24:33;;;;;;;4.53;3.20;;;24.40;38.80;;;;;;5062388;28;20444;-90
2022/06/14 08:27:11;;;;;;;4.60;2.63;;;24.40;37.80;;;;;;5054039;28;20478;-93
2022/06/14 08:29:44;;;;;;;3.93;3.43;;;24.30;38.60;;;;;;5064619;28;20448;-91
2022/06/14 08:32:17;;;;;;;7.93;3.90;;;24.60;38.50;;;;;;5075487;28;20449;-93
2022/06/14 08:34:58;;;;;;;2.97;2.77;;;24.70;36.60;;;;;;5078462;28;20787;-91
2022/06/14 08:37:37;;;;;;;3.20;2.77;;;24.80;36.10;;;;;;5062917;28;20467;-91
2022/06/14 08:40:27;;;;;;;4.60;2.93;;;24.80;36.40;;;;;;5038489;28;20447;-90
2022/06/14 08:43:01;;;;;;;2.80;2.50;;;24.90;34.20;;;;;;5041702;28;20533;-90
2022/06/14 08:45:38;;;;;;;3.40;2.73;;;25.10;33.70;;;;;;5062242;28;20980;-92
2022/06/14 09:00:32;;;;;;;8.80;2.70;;;25.70;33.40;;;;;;5060987;28;21644;-92
2022/06/14 09:15:01;;;;;;;3.90;3.53;;;26.50;31.90;;;;;;5039433;28;20467;-91
2022/06/14 09:17:53;;;;;;;3.30;2.20;;;26.80;31.70;;;;;;5058383;28;20525;-90
2022/06/14 09:20:33;;;;;;;4.70;2.30;;;27.00;31.20;;;;;;5051723;28;21154;-91
2022/06/14 09:23:19;;;;;;;3.03;2.57;;;27.10;31.30;;;;;;5071985;28;20455;-92
2022/06/14 09:26:18;;;;;;;7.23;2.40;;;26.80;30.80;;;;;;5064611;28;20560;-91
2022/06/14 09:29:24;;;;;;;2.80;2.33;;;26.90;29.90;;;;;;5083213;28;20428;-91
2022/06/14 09:32:31;;;;;;;5.10;3.30;;;27.00;29.50;;;;;;5055470;28;20497;-90
2022/06/14 09:35:26;;;;;;;4.80;2.67;;;27.30;29.90;;;;;;5018470;28;20584;-93
2022/06/14 09:42:40;;;;;;;3.20;2.17;;;27.60;28.10;;;;;;5077651;28;20463;-91
2022/06/14 09:45:44;;;;;;;1.93;1.83;;;27.50;28.10;;;;;;5057788;28;21025;-88
2022/06/14 09:48:44;;;;;;;2.60;2.40;;;27.20;27.50;;;;;;5060649;28;20869;-92
2022/06/14 09:51:45;;;;;;;6.37;2.40;;;27.20;28.20;;;;;;5049861;28;20454;-92
2022/06/14 09:54:48;;;;;;;3.97;2.57;;;27.50;27.00;;;;;;5050519;28;20835;-92
2022/06/14 09:57:31;;;;;;;2.17;1.97;;;27.80;27.70;;;;;;5043472;28;20986;-91
2022/06/14 10:00:24;;;;;;;2.10;1.90;;;27.80;26.40;;;;;;5060898;28;20447;-93
2022/06/14 10:03:24;;;;;;;2.73;2.53;;;27.80;26.10;;;;;;5060702;28;20440;-89
2022/06/14 10:06:08;;;;;;;4.57;2.70;;;27.90;26.50;;;;;;5075098;28;20467;-89
2022/06/14 10:09:06;;;;;;;2.40;1.83;;;27.80;25.60;;;;;;5078187;28;20450;-90
2022/06/14 10:11:50;;;;;;;2.47;1.90;;;28.30;26.40;;;;;;5062414;28;20535;-90
2022/06/14 10:14:42;;;;;;;1.97;1.87;;;28.70;26.10;;;;;;5060200;28;20574;-92
2022/06/14 10:17:39;;;;;;;1.73;1.63;;;28.40;24.10;;;;;;5083526;28;20582;-91
2022/06/14 10:20:38;;;;;;;4.70;1.70;;;28.10;24.70;;;;;;5074531;28;20451;-89
2022/06/14 10:23:38;;;;;;;7.63;1.80;;;27.60;24.40;;;;;;5082549;28;20440;-90
2022/06/14 10:29:46;;;;;;;3.90;2.13;;;28.30;25.10;;;;;;5083628;28;20447;-90
2022/06/14 10:32:37;;;;;;;2.23;1.90;;;28.40;25.00;;;;;;5073423;28;20457;-90
2022/06/14 10:35:11;;;;;;;5.63;1.70;;;28.50;25.60;;;;;;5074415;28;20443;-90
2022/06/14 10:38:13;;;;;;;2.13;1.83;;;29.00;25.30;;;;;;5080118;28;20558;-93
2022/06/14 10:40:55;;;;;;;4.60;2.27;;;29.40;24.40;;;;;;5077995;28;20955;-90
2022/06/14 10:43:32;;;;;;;2.03;1.83;;;29.30;23.70;;;;;;5049548;28;20444;-90
2022/06/14 10:46:08;;;;;;;2.50;1.93;;;29.30;23.00;;;;;;5083182;27;20559;-91
2022/06/14 10:49:09;;;;;;;2.60;1.83;;;29.40;23.70;;;;;;5080098;28;20444;-90
2022/06/14 10:51:50;;;;;;;2.27;2.00;;;29.80;23.90;;;;;;5064129;28;20493;-89
2022/06/14 10:54:27;;;;;;;2.40;1.80;;;29.60;22.50;;;;;;5084723;28;20505;-91
2022/06/14 10:57:11;;;;;;;2.17;1.70;;;29.50;23.10;;;;;;5059363;28;20460;-90
2022/06/14 11:00:08;;;;;;;7.53;1.70;;;29.80;25.00;;;;;;5069850;28;20575;-90
2022/06/14 11:03:07;;;;;;;2.13;2.03;;;29.80;22.20;;;;;;5080403;28;20443;-90
2022/06/14 11:05:52;;;;;;;3.43;2.63;;;29.60;22.40;;;;;;5037048;28;20474;-90
2022/06/14 11:08:39;;;;;;;1.93;1.70;;;29.50;22.10;;;;;;5067729;28;21138;-89
2022/06/14 11:11:30;;;;;;;4.23;2.07;;;29.90;22.50;;;;;;5046545;28;20444;-90
2022/06/14 11:14:12;;;;;;;2.37;1.90;;;29.80;21.30;;;;;;5082045;28;20439;-89
2022/06/14 11:17:00;;;;;;;2.60;1.97;;;29.80;21.90;;;;;;5080200;28;20551;-92
2022/06/14 11:20:10;;;;;;;2.90;1.90;;;30.10;23.00;;;;;;5084200;28;20943;-92
2022/06/14 11:22:42;;;;;;;2.50;2.13;;;30.10;22.40;;;;;;5046245;28;20441;-87
2022/06/14 11:25:28;;;;;;;3.37;2.00;;;30.10;21.10;;;;;;5063913;28;20463;-91
2022/06/14 11:28:08;;;;;;;2.10;1.90;;;29.90;22.80;;;;;;5079679;28;20433;-91
2022/06/14 11:34:41;;;;;;;2.00;1.87;;;29.80;22.60;;;;;;5077984;28;20490;-89
2022/06/14 11:37:29;;;;;;;1.87;1.77;;;29.70;21.90;;;;;;5034754;28;20529;-90
2022/06/14 11:43:38;;;;;;;1.97;1.70;;;30.30;23.20;;;;;;5052152;28;20447;-89
2022/06/14 11:46:16;;;;;;;1.93;1.77;;;30.90;22.30;;;;;;5060268;28;20463;-91
2022/06/14 11:48:56;;;;;;;3.43;2.03;;;31.00;21.00;;;;;;5061934;28;20431;-91
2022/06/14 11:51:31;;;;;;;4.03;1.97;;;31.20;20.60;;;;;;5070558;28;20451;-90
2022/06/14 11:54:21;;;;;;;2.63;1.77;;;31.30;20.60;;;;;;5064766;28;20501;-90
2022/06/14 11:57:10;;;;;;;2.13;1.67;;;31.50;20.20;;;;;;5078284;28;20460;-90
2022/06/14 12:00:06;;;;;;;4.40;2.43;;;31.50;20.10;;;;;;5100134;27;20460;-90
2022/06/14 12:02:56;;;;;;;3.93;1.87;;;31.70;20.50;;;;;;5078693;28;20443;-91
2022/06/14 12:05:38;;;;;;;3.20;1.70;;;31.80;19.40;;;;;;5063660;28;20466;-91
2022/06/14 12:08:35;;;;;;;3.00;1.80;;;31.80;20.00;;;;;;5044021;28;20473;-91
2022/06/14 12:11:15;;;;;;;2.50;2.10;;;31.70;19.80;;;;;;5077330;28;20447;-90
2022/06/14 12:14:21;;;;;;;3.53;1.57;;;31.60;19.80;;;;;;5059359;28;20448;-89
2022/06/14 12:16:57;;;;;;;3.20;1.70;;;31.80;20.10;;;;;;5064721;28;20975;-90
2022/06/14 12:19:36;;;;;;;1.60;1.50;;;31.80;19.50;;;;;;5078071;28;20455;-90
2022/06/14 12:22:31;;;;;;;1.97;1.73;;;31.50;19.20;;;;;;5039019;28;20448;-90
2022/06/14 12:28:00;;;;;;;1.63;1.53;;;31.80;18.60;;;;;;5057804;28;20432;-89
2022/06/14 12:30:33;;;;;;;1.43;1.33;;;31.60;19.60;;;;;;5082424;28;20459;-89
2022/06/14 12:33:10;;;;;;;2.70;1.60;;;31.90;19.80;;;;;;5066903;28;20431;-89
2022/06/14 12:35:51;;;;;;;1.70;1.60;;;32.30;19.70;;;;;;5059137;28;21006;-88
2022/06/14 12:38:31;;;;;;;3.83;1.60;;;32.30;18.50;;;;;;5073098;28;21167;-90
2022/06/14 12:41:08;;;;;;;5.73;1.93;;;32.10;19.50;;;;;;5053436;28;20441;-89
2022/06/14 12:43:47;;;;;;;1.70;1.60;;;32.20;20.00;;;;;;5059528;28;20467;-88
2022/06/14 12:46:19;;;;;;;2.03;1.43;;;32.00;18.60;;;;;;5057112;28;20475;-88
2022/06/14 12:48:56;;;;;;;2.07;1.87;;;31.60;19.60;;;;;;5076133;28;20551;-89
2022/06/14 12:51:31;;;;;;;1.63;1.40;;;31.70;19.00;;;;;;5055278;28;20446;-88
2022/06/14 12:54:05;;;;;;;4.17;1.70;;;31.70;18.50;;;;;;5065487;28;20686;-89
2022/06/14 12:56:43;;;;;;;2.80;2.00;;;32.00;19.60;;;;;;5072678;28;20471;-91
2022/06/14 12:59:17;;;;;;;1.57;1.47;;;32.30;17.80;;;;;;5057221;28;20470;-88
2022/06/14 13:01:53;;;;;;;1.47;1.37;;;32.10;17.70;;;;;;5059876;28;20450;-88
2022/06/14 13:04:29;;;;;;;3.93;1.43;;;32.10;17.50;;;;;;5062906;28;21079;-88
2022/06/14 13:07:31;;;;;;;1.50;1.40;;;32.00;18.90;;;;;;5061525;28;20524;-90
2022/06/14 13:10:19;;;;;;;3.30;1.50;;;31.80;17.40;;;;;;5048022;28;20447;-89
2022/06/14 13:13:02;;;;;;;2.13;1.60;;;31.80;17.40;;;;;;5056764;28;20447;-89
2022/06/14 13:15:35;;;;;;;1.97;1.80;;;31.90;17.70;;;;;;5041020;28;20463;-90
2022/06/14 13:18:20;;;;;;;3.40;1.83;;;32.20;18.50;;;;;;5055519;28;20443;-89
2022/06/14 13:20:57;;;;;;;1.60;1.50;;;32.20;18.60;;;;;;5079747;28;20445;-89
2022/06/14 13:23:37;;;;;;;2.07;1.77;;;32.60;19.50;;;;;;5072790;28;21135;-88
2022/06/14 13:26:30;;;;;;;1.80;1.70;;;32.50;18.20;;;;;;5057960;28;20458;-90
2022/06/14 13:29:38;;;;;;;5.23;1.70;;;32.80;18.90;;;;;;5039472;28;20443;-89
2022/06/14 13:32:31;;;;;;;2.87;1.77;;;32.90;18.00;;;;;;4977504;28;20487;-89
2022/06/14 13:35:10;;;;;;;1.70;1.60;;;33.20;18.00;;;;;;4952983;28;20946;-89
2022/06/14 13:37:48;;;;;;;3.70;1.47;;;33.10;18.30;;;;;;5044127;28;20616;-89
2022/06/14 13:40:25;;;;;;;2.30;1.53;;;33.00;18.00;;;;;;5073436;28;20487;-88
2022/06/14 13:42:59;;;;;;;1.80;1.57;;;33.10;18.00;;;;;;5074380;28;20559;-89
2022/06/14 13:45:41;;;;;;;2.17;1.80;;;33.40;18.00;;;;;;5074870;28;21387;-87
2022/06/14 13:48:21;;;;;;;1.90;1.80;;;33.10;16.90;;;;;;5064742;28;20473;-88
2022/06/14 13:50:57;;;;;;;1.70;1.60;;;33.00;17.60;;;;;;5075943;28;20451;-88
2022/06/14 13:53:28;;;;;;;1.50;1.40;;;32.80;17.20;;;;;;5082632;28;20453;-87
2022/06/14 13:56:07;;;;;;;2.53;1.70;;;32.70;17.70;;;;;;5076534;28;20481;-87
2022/06/14 13:58:41;;;;;;;3.00;2.40;;;32.40;18.00;;;;;;5081738;28;20459;-90
2022/06/14 14:01:22;;;;;;;2.23;1.80;;;32.40;18.00;;;;;;5066553;28;20451;-88
2022/06/14 14:03:59;;;;;;;2.03;1.60;;;32.10;18.70;;;;;;5064881;28;20514;-87
2022/06/14 14:06:37;;;;;;;3.20;1.60;;;31.80;18.20;;;;;;5062098;28;20555;-87
2022/06/14 14:09:17;;;;;;;5.53;1.77;;;31.80;18.00;;;;;;5065808;28;21143;-86
2022/06/14 14:11:57;;;;;;;5.80;1.73;;;31.90;19.00;;;;;;5075438;28;20497;-87
2022/06/14 14:14:38;;;;;;;1.63;1.53;;;32.20;18.50;;;;;;5077010;28;20863;-89
2022/06/14 14:17:16;;;;;;;3.40;1.70;;;32.30;17.60;;;;;;5078261;28;21269;-85
2022/06/14 14:20:04;;;;;;;1.93;1.70;;;31.70;17.40;;;;;;5063278;28;20472;-87
2022/06/14 14:22:38;;;;;;;3.03;1.77;;;31.90;18.50;;;;;;5055011;28;20451;-88
2022/06/14 14:25:17;;;;;;;2.83;1.70;;;32.30;18.30;;;;;;5077753;28;20443;-86
2022/06/14 14:28:01;;;;;;;1.60;1.50;;;32.50;17.90;;;;;;5080249;28;20539;-86
2022/06/14 14:31:02;;;;;;;1.80;1.67;;;32.60;17.30;;;;;;5070121;28;20432;-88
2022/06/14 14:33:39;;;;;;;3.13;1.80;;;32.60;18.20;;;;;;5070621;28;21435;-87
2022/06/14 14:36:15;;;;;;;1.80;1.70;;;32.50;18.30;;;;;;5078548;28;20470;-87
2022/06/14 14:38:52;;;;;;;1.73;1.63;;;32.60;18.20;;;;;;5051991;28;20493;-85
2022/06/14 14:41:37;;;;;;;3.33;1.70;;;32.60;17.80;;;;;;5077092;28;20491;-88
2022/06/14 14:44:20;;;;;;;2.07;1.87;;;32.80;18.00;;;;;;5079835;28;20448;-87
2022/06/14 14:46:57;;;;;;;2.60;1.80;;;32.70;17.50;;;;;;5051425;28;20464;-88
2022/06/14 14:49:31;;;;;;;3.23;1.80;;;32.70;18.00;;;;;;5064274;28;20892;-88
2022/06/14 14:52:11;;;;;;;3.00;1.70;;;32.60;17.50;;;;;;5064422;28;20520;-89
2022/06/14 14:54:54;;;;;;;4.63;2.80;;;32.50;17.90;;;;;;5079001;28;20649;-89
2022/06/14 14:57:32;;;;;;;2.03;1.87;;;32.70;18.10;;;;;;5064050;28;20469;-88
2022/06/14 15:00:15;;;;;;;1.90;1.70;;;32.40;17.50;;;;;;5068593;28;20481;-88